Time;durP1;ratioP1;P1;durP2;ratioP2;P2;SDS_P1;SDS_P2;PMS_P1;PMS_P2;Temp;Humidity;BMP_temperature;BMP_pressure;BME280_temperature;BME280_humidity;BME280_pressure;Samples;Min_cycle;Max_cycle;Signal;HPM_P1;HPM_P2
2022/04/04 00:02:19;;;;;;;13.02;8.40;;;2.10;99.90;;;;;;5077238;28;20107;-47
2022/04/04 00:04:45;;;;;;;10.35;8.70;;;2.20;99.70;;;;;;5077738;28;20020;-44
2022/04/04 00:07:10;;;;;;;9.20;8.18;;;2.20;99.60;;;;;;5077448;28;20112;-45
2022/04/04 00:09:36;;;;;;;10.35;8.30;;;2.20;99.40;;;;;;5078144;28;20024;-43
2022/04/04 00:12:01;;;;;;;11.25;8.23;;;2.10;99.40;;;;;;5077576;28;20031;-46
2022/04/04 00:14:27;;;;;;;10.40;7.80;;;2.00;99.70;;;;;;5077563;28;20024;-47
2022/04/04 00:16:53;;;;;;;12.75;8.20;;;1.90;99.80;;;;;;5077308;28;20395;-39
2022/04/04 00:19:19;;;;;;;10.73;7.50;;;1.80;99.90;;;;;;5078147;28;20495;-50
2022/04/04 00:21:44;;;;;;;9.23;7.43;;;1.70;99.90;;;;;;5077327;28;20104;-46
2022/04/04 00:24:10;;;;;;;11.00;7.90;;;1.70;99.90;;;;;;5077340;28;20016;-44
2022/04/04 00:26:36;;;;;;;8.75;6.90;;;1.70;99.90;;;;;;5077411;28;20111;-46
2022/04/04 00:29:02;;;;;;;8.38;7.00;;;1.70;99.90;;;;;;5077283;28;20025;-36
2022/04/04 00:31:27;;;;;;;16.17;8.55;;;1.60;99.90;;;;;;5077392;28;20110;-45
2022/04/04 00:33:53;;;;;;;8.07;6.72;;;1.60;99.90;;;;;;5077929;28;20025;-47
2022/04/04 00:36:18;;;;;;;13.15;8.07;;;1.50;99.90;;;;;;5059720;28;20021;-45
2022/04/04 00:38:44;;;;;;;8.95;7.03;;;1.50;99.90;;;;;;5077540;28;20050;-44
2022/04/04 00:41:11;;;;;;;11.57;6.90;;;1.50;99.90;;;;;;5077955;28;20021;-43
2022/04/04 00:43:38;;;;;;;15.70;8.05;;;1.40;99.90;;;;;;5078345;28;20028;-45
2022/04/04 00:46:04;;;;;;;18.58;11.05;;;1.30;99.90;;;;;;5077727;28;20031;-48
2022/04/04 00:48:29;;;;;;;20.42;13.00;;;1.30;99.90;;;;;;5059207;28;20496;-44
2022/04/04 00:50:55;;;;;;;33.10;16.63;;;1.30;99.90;;;;;;5078276;28;20311;-40
2022/04/04 00:53:20;;;;;;;10.90;8.93;;;1.30;99.90;;;;;;5059689;28;20074;-46
2022/04/04 00:55:46;;;;;;;9.55;7.70;;;1.20;99.90;;;;;;5079297;28;20054;-43
2022/04/04 00:58:14;;;;;;;12.43;7.88;;;1.20;99.90;;;;;;5063814;28;20025;-46
2022/04/04 01:00:45;;;;;;;11.73;8.90;;;1.20;99.90;;;;;;5076873;28;20024;-50
2022/04/04 01:03:10;;;;;;;10.15;7.97;;;1.20;99.90;;;;;;5075101;28;20495;-45
2022/04/04 01:05:36;;;;;;;11.68;8.55;;;1.20;99.90;;;;;;5076965;28;20088;-47
2022/04/04 01:08:01;;;;;;;10.32;8.18;;;1.20;99.90;;;;;;5076217;28;20090;-44
2022/04/04 01:10:28;;;;;;;13.07;8.95;;;1.20;99.90;;;;;;5076639;28;20031;-43
2022/04/04 01:12:55;;;;;;;10.85;8.05;;;1.10;99.90;;;;;;5077396;28;20108;-39
2022/04/04 01:15:23;;;;;;;12.20;8.52;;;1.10;99.90;;;;;;5076863;28;20036;-49
2022/04/04 01:17:49;;;;;;;11.98;9.02;;;1.00;99.90;;;;;;5076780;28;20020;-48
2022/04/04 01:20:15;;;;;;;14.88;8.98;;;1.10;99.90;;;;;;5076890;28;20078;-47
2022/04/04 01:22:46;;;;;;;14.65;10.38;;;1.00;99.90;;;;;;5077071;28;20020;-44
2022/04/04 01:25:11;;;;;;;12.02;9.88;;;1.00;99.90;;;;;;5076879;28;20024;-46
2022/04/04 01:27:39;;;;;;;11.85;9.20;;;1.00;99.90;;;;;;5076877;28;20126;-47
2022/04/04 01:30:07;;;;;;;14.68;10.25;;;1.00;99.90;;;;;;5077123;28;20500;-42
2022/04/04 01:32:34;;;;;;;15.23;9.75;;;1.10;99.90;;;;;;5076822;28;20142;-39
2022/04/04 01:34:59;;;;;;;14.85;9.63;;;1.10;99.90;;;;;;5076907;28;20040;-43
2022/04/04 01:37:25;;;;;;;13.57;10.00;;;1.10;99.90;;;;;;5058470;28;20032;-46
2022/04/04 01:39:50;;;;;;;12.23;10.02;;;1.10;99.90;;;;;;5076680;28;20078;-45
2022/04/04 01:42:16;;;;;;;15.95;10.25;;;1.00;99.90;;;;;;5076688;28;20038;-47
2022/04/04 01:44:41;;;;;;;17.00;10.10;;;1.00;99.90;;;;;;5077001;28;20021;-43
2022/04/04 01:47:07;;;;;;;12.07;9.57;;;1.00;99.90;;;;;;5076239;28;20033;-45
2022/04/04 01:49:32;;;;;;;17.95;11.20;;;1.00;99.90;;;;;;5077005;28;20055;-40
2022/04/04 01:51:58;;;;;;;18.45;11.15;;;1.00;99.90;;;;;;5077290;28;20032;-43
2022/04/04 01:54:24;;;;;;;18.08;10.30;;;1.00;99.90;;;;;;5076881;28;20020;-46
2022/04/04 01:56:49;;;;;;;15.52;11.80;;;1.00;99.90;;;;;;5076158;28;20021;-42
2022/04/04 01:59:15;;;;;;;19.63;10.30;;;1.10;99.90;;;;;;5076644;28;20434;-47
2022/04/04 02:01:41;;;;;;;15.93;11.32;;;1.10;99.90;;;;;;5076304;28;20024;-39
2022/04/04 02:04:10;;;;;;;16.40;11.07;;;1.20;99.90;;;;;;5076081;28;20043;-44
2022/04/04 02:06:35;;;;;;;16.63;11.32;;;1.10;99.90;;;;;;5075929;28;20040;-45
2022/04/04 02:09:01;;;;;;;13.50;10.50;;;1.10;99.90;;;;;;5075366;28;20039;-40
2022/04/04 02:11:26;;;;;;;16.35;11.13;;;1.10;99.90;;;;;;5076207;28;20031;-48
2022/04/04 02:13:52;;;;;;;16.70;11.18;;;1.10;99.90;;;;;;5076064;28;20020;-48
2022/04/04 02:16:17;;;;;;;14.75;11.07;;;1.10;99.90;;;;;;5076693;28;20395;-45
2022/04/04 02:18:43;;;;;;;14.45;11.00;;;1.10;99.90;;;;;;5075922;28;20039;-43
2022/04/04 02:21:09;;;;;;;12.63;10.10;;;1.10;99.90;;;;;;5058046;28;20065;-43
2022/04/04 02:23:35;;;;;;;15.75;11.05;;;1.10;99.90;;;;;;5076261;28;20028;-40
2022/04/04 02:26:01;;;;;;;12.70;10.27;;;1.10;99.90;;;;;;5057541;28;20466;-39
2022/04/04 02:28:27;;;;;;;15.77;11.63;;;1.10;99.90;;;;;;5075512;28;20052;-41
2022/04/04 02:30:53;;;;;;;15.05;10.43;;;1.00;99.90;;;;;;5075270;28;20035;-46
2022/04/04 02:33:20;;;;;;;13.15;10.05;;;1.00;99.90;;;;;;5075681;28;20032;-45
2022/04/04 02:35:46;;;;;;;14.10;11.63;;;1.10;99.90;;;;;;5075104;28;20025;-38
2022/04/04 02:38:12;;;;;;;15.60;10.85;;;1.10;99.90;;;;;;5074914;28;20538;-44
2022/04/04 02:40:39;;;;;;;15.98;11.27;;;1.10;99.90;;;;;;5075324;28;20036;-43
2022/04/04 02:43:05;;;;;;;19.45;10.07;;;1.20;99.90;;;;;;5075249;28;20032;-41
2022/04/04 02:45:31;;;;;;;13.23;10.50;;;1.20;99.90;;;;;;5075214;28;20099;-42
2022/04/04 02:47:57;;;;;;;16.45;11.45;;;1.10;99.90;;;;;;5075025;28;20491;-51
2022/04/04 02:50:22;;;;;;;15.02;10.88;;;1.30;99.90;;;;;;5075506;28;20100;-43
2022/04/04 02:52:48;;;;;;;14.93;11.50;;;1.20;99.90;;;;;;5056754;28;20111;-39
2022/04/04 02:57:58;;;;;;;15.15;10.82;;;1.10;99.90;;;;;;5075273;28;20077;-43
2022/04/04 03:00:24;;;;;;;17.67;11.85;;;1.10;99.90;;;;;;5075779;28;20036;-49
2022/04/04 03:02:51;;;;;;;22.38;12.18;;;1.00;99.90;;;;;;5076411;28;20016;-40
2022/04/04 03:05:16;;;;;;;16.63;12.07;;;1.10;99.90;;;;;;5075226;28;20443;-45
2022/04/04 03:07:42;;;;;;;15.80;11.90;;;1.00;99.90;;;;;;5074808;28;20029;-48
2022/04/04 03:10:09;;;;;;;19.95;12.35;;;1.00;99.90;;;;;;5057636;28;20024;-42
2022/04/04 03:12:41;;;;;;;16.88;12.00;;;1.00;99.90;;;;;;5075886;28;20027;-44
2022/04/04 03:15:08;;;;;;;20.60;11.88;;;1.00;99.90;;;;;;5075243;28;20029;-47
2022/04/04 03:17:34;;;;;;;18.40;12.75;;;1.00;99.90;;;;;;5075254;28;20094;-42
2022/04/04 03:20:00;;;;;;;18.08;11.88;;;1.00;99.90;;;;;;5057428;28;20487;-47
2022/04/04 03:22:26;;;;;;;16.77;12.20;;;1.00;99.90;;;;;;5076187;28;20024;-42
2022/04/04 03:24:52;;;;;;;17.67;12.40;;;1.00;99.90;;;;;;5061514;28;20025;-44
2022/04/04 03:27:18;;;;;;;17.90;12.15;;;1.10;99.90;;;;;;5075379;28;20020;-44
2022/04/04 03:29:44;;;;;;;16.90;12.32;;;1.00;99.90;;;;;;5075174;28;20024;-44
2022/04/04 03:32:10;;;;;;;19.42;13.20;;;1.00;99.90;;;;;;5075310;28;20483;-46
2022/04/04 03:34:35;;;;;;;17.20;11.93;;;1.00;99.90;;;;;;5075662;28;20108;-39
2022/04/04 03:37:01;;;;;;;20.15;11.98;;;1.00;99.90;;;;;;5075781;28;20533;-44
2022/04/04 03:39:27;;;;;;;17.30;12.05;;;1.00;99.90;;;;;;5076136;28;20031;-45
2022/04/04 03:41:54;;;;;;;18.55;12.38;;;1.00;99.90;;;;;;5075545;28;20070;-43
2022/04/04 03:44:20;;;;;;;14.25;12.10;;;0.90;99.90;;;;;;5076453;28;20077;-41
2022/04/04 03:46:46;;;;;;;15.00;11.07;;;0.90;99.90;;;;;;5076682;28;20487;-39
2022/04/04 03:49:11;;;;;;;13.88;11.10;;;0.90;99.90;;;;;;5077013;28;20021;-43
2022/04/04 03:51:37;;;;;;;18.75;13.55;;;0.90;99.90;;;;;;5076026;28;20032;-42
2022/04/04 03:54:02;;;;;;;16.65;12.02;;;0.90;99.90;;;;;;5077569;28;20029;-39
2022/04/04 03:56:28;;;;;;;18.35;11.77;;;0.90;99.90;;;;;;5076534;28;20021;-40
2022/04/04 03:58:54;;;;;;;17.05;12.80;;;0.90;99.90;;;;;;5057703;28;20017;-43
2022/04/04 04:01:20;;;;;;;17.00;12.77;;;1.00;99.90;;;;;;5075971;28;20534;-43
2022/04/04 04:03:46;;;;;;;15.77;12.38;;;1.10;99.90;;;;;;5057444;28;20028;-44
2022/04/04 04:06:11;;;;;;;22.20;13.30;;;1.10;99.90;;;;;;5076822;28;20063;-46
2022/04/04 04:08:43;;;;;;;14.68;11.25;;;1.00;99.90;;;;;;5075552;28;20025;-43
2022/04/04 04:11:09;;;;;;;18.05;13.27;;;1.00;99.90;;;;;;5076364;28;20488;-46
2022/04/04 04:13:36;;;;;;;17.60;11.80;;;1.00;99.90;;;;;;5078516;28;20029;-45
2022/04/04 04:16:02;;;;;;;17.25;12.43;;;1.00;99.90;;;;;;5061017;28;20020;-42
2022/04/04 04:18:28;;;;;;;16.30;12.70;;;1.00;99.90;;;;;;5077604;28;20031;-42
2022/04/04 04:20:54;;;;;;;17.90;12.82;;;1.00;99.90;;;;;;5079649;28;20021;-43
2022/04/04 04:23:20;;;;;;;16.77;12.05;;;1.00;99.90;;;;;;5078129;28;20043;-44
2022/04/04 04:25:47;;;;;;;18.77;12.50;;;1.00;99.90;;;;;;5074637;28;20084;-45
2022/04/04 04:28:12;;;;;;;17.98;13.35;;;1.00;99.90;;;;;;5074656;28;20055;-44
2022/04/04 04:30:38;;;;;;;17.00;12.38;;;1.00;99.90;;;;;;5074179;28;20020;-42
2022/04/04 04:33:04;;;;;;;25.85;12.55;;;1.10;99.90;;;;;;5106576;22;20031;-39
2022/04/04 04:35:30;;;;;;;20.02;12.43;;;1.10;99.90;;;;;;5112449;28;20437;-39
2022/04/04 04:37:55;;;;;;;17.67;13.20;;;1.00;99.90;;;;;;5114606;28;20024;-41
2022/04/04 04:40:21;;;;;;;15.75;12.25;;;0.90;99.90;;;;;;5114984;28;20150;-40
2022/04/04 04:42:49;;;;;;;17.25;11.75;;;1.00;99.90;;;;;;5115796;28;20028;-41
2022/04/04 04:45:15;;;;;;;15.43;11.73;;;0.90;99.90;;;;;;5114618;28;20042;-42
2022/04/04 04:47:41;;;;;;;21.63;12.75;;;0.90;99.90;;;;;;5114499;28;20028;-38
2022/04/04 04:50:07;;;;;;;17.70;12.43;;;1.00;99.90;;;;;;5114707;28;20039;-43
2022/04/04 04:52:33;;;;;;;17.98;13.00;;;1.00;99.90;;;;;;5114385;28;20470;-42
2022/04/04 04:55:00;;;;;;;18.67;12.88;;;0.90;99.90;;;;;;5114669;28;20056;-40
2022/04/04 04:57:26;;;;;;;21.73;12.68;;;0.90;99.90;;;;;;5114485;28;20024;-42
2022/04/04 04:59:52;;;;;;;18.63;13.00;;;0.80;99.90;;;;;;5114752;28;20060;-40
2022/04/04 05:02:17;;;;;;;21.60;13.88;;;0.80;99.90;;;;;;5114575;28;20028;-41
2022/04/04 05:04:43;;;;;;;17.25;12.15;;;0.80;99.90;;;;;;5114306;28;20035;-39
2022/04/04 05:07:09;;;;;;;17.90;12.15;;;0.80;99.90;;;;;;5114243;28;20041;-41
2022/04/04 05:09:35;;;;;;;15.48;12.27;;;0.70;99.90;;;;;;5114486;28;20045;-40
2022/04/04 05:12:01;;;;;;;17.27;12.25;;;0.70;99.90;;;;;;5114298;28;20027;-41
2022/04/04 05:14:26;;;;;;;17.15;12.13;;;0.70;99.90;;;;;;5114161;28;20050;-42
2022/04/04 05:16:53;;;;;;;16.58;12.65;;;0.70;99.90;;;;;;5113825;28;20032;-38
2022/04/04 05:19:25;;;;;;;20.05;14.05;;;0.70;99.90;;;;;;5114090;28;20026;-40
2022/04/04 05:21:56;;;;;;;14.63;12.15;;;0.70;99.90;;;;;;5114914;28;20020;-41
2022/04/04 05:24:22;;;;;;;17.23;11.90;;;0.60;99.90;;;;;;5112851;28;20054;-40
2022/04/04 05:26:48;;;;;;;16.80;12.88;;;0.60;99.90;;;;;;5113899;28;20066;-40
2022/04/04 05:29:17;;;;;;;19.05;13.13;;;0.60;99.90;;;;;;5113900;28;20046;-40
2022/04/04 05:31:43;;;;;;;17.95;12.35;;;0.70;99.90;;;;;;5113856;28;20026;-42
2022/04/04 05:34:09;;;;;;;26.50;13.90;;;0.80;99.90;;;;;;5114134;28;20023;-40
2022/04/04 05:36:34;;;;;;;20.10;12.68;;;0.80;99.90;;;;;;5113732;28;20521;-40
2022/04/04 05:39:00;;;;;;;20.42;11.88;;;0.90;99.90;;;;;;5113754;28;20479;-42
2022/04/04 05:41:29;;;;;;;17.60;11.60;;;0.90;99.90;;;;;;5113806;28;20034;-41
2022/04/04 05:43:55;;;;;;;14.60;12.02;;;1.10;99.90;;;;;;5113981;28;20117;-40
2022/04/04 05:46:21;;;;;;;15.50;10.52;;;1.20;99.90;;;;;;5113317;28;20057;-41
2022/04/04 05:48:46;;;;;;;16.27;11.75;;;1.30;99.90;;;;;;5113130;28;20053;-41
2022/04/04 05:51:16;;;;;;;16.38;11.35;;;1.50;99.90;;;;;;5113515;28;20020;-41
2022/04/04 05:53:42;;;;;;;14.32;11.32;;;1.60;99.90;;;;;;5113464;28;20039;-41
2022/04/04 05:56:08;;;;;;;15.75;11.50;;;1.80;99.90;;;;;;5113440;28;20058;-42
2022/04/04 05:58:34;;;;;;;15.70;11.05;;;2.10;99.90;;;;;;5113199;28;20062;-40
2022/04/04 06:01:00;;;;;;;18.95;11.57;;;2.20;99.90;;;;;;5113405;28;20020;-41
2022/04/04 06:03:25;;;;;;;14.45;11.00;;;2.50;99.90;;;;;;5112930;28;20138;-42
2022/04/04 06:05:51;;;;;;;15.27;10.43;;;2.60;99.90;;;;;;5094973;28;20065;-42
2022/04/04 06:08:17;;;;;;;15.07;10.45;;;2.70;99.90;;;;;;5112517;28;20453;-40
2022/04/04 06:10:46;;;;;;;12.85;10.45;;;2.90;99.90;;;;;;5113512;28;20023;-44
2022/04/04 06:13:15;;;;;;;15.93;11.30;;;2.90;99.90;;;;;;5113005;28;20020;-40
2022/04/04 06:15:42;;;;;;;15.70;11.45;;;3.10;99.90;;;;;;5112902;28;20026;-41
2022/04/04 06:18:08;;;;;;;13.93;10.57;;;3.20;99.90;;;;;;5112862;28;20023;-41
2022/04/04 06:20:34;;;;;;;14.90;10.13;;;3.50;99.90;;;;;;5113056;28;20498;-40
2022/04/04 06:23:00;;;;;;;14.68;10.93;;;3.50;99.90;;;;;;5112849;28;20035;-39
2022/04/04 06:25:26;;;;;;;18.25;11.48;;;3.30;99.90;;;;;;5112984;28;20032;-40
2022/04/04 06:27:52;;;;;;;17.80;10.95;;;2.90;99.90;;;;;;5113353;28;20155;-40
2022/04/04 06:30:17;;;;;;;15.35;10.93;;;2.80;99.90;;;;;;5094501;28;20020;-41
2022/04/04 06:32:44;;;;;;;14.50;10.73;;;2.70;99.90;;;;;;5112553;28;20040;-40
2022/04/04 06:35:11;;;;;;;19.83;10.63;;;2.80;99.90;;;;;;5112854;28;20024;-42
2022/04/04 06:37:37;;;;;;;17.58;10.95;;;3.00;99.90;;;;;;5094470;28;20019;-42
2022/04/04 06:40:04;;;;;;;18.65;11.35;;;3.10;99.90;;;;;;5112501;28;20044;-39
2022/04/04 06:42:33;;;;;;;16.08;11.05;;;3.20;99.90;;;;;;5112446;28;20544;-40
2022/04/04 06:44:59;;;;;;;14.85;10.93;;;3.20;99.90;;;;;;5112600;28;20027;-41
2022/04/04 06:47:26;;;;;;;16.98;11.82;;;3.30;99.90;;;;;;5112239;28;20051;-41
2022/04/04 06:49:52;;;;;;;13.02;9.27;;;3.80;99.90;;;;;;5112434;28;20102;-41
2022/04/04 06:52:18;;;;;;;12.52;10.15;;;4.10;99.90;;;;;;5112421;28;20041;-42
2022/04/04 06:54:44;;;;;;;13.75;10.02;;;4.40;99.90;;;;;;5112199;28;20024;-41
2022/04/04 06:57:09;;;;;;;14.52;10.02;;;4.50;99.90;;;;;;5111851;28;20073;-40
2022/04/04 06:59:35;;;;;;;13.30;10.10;;;4.70;99.90;;;;;;5111676;28;20021;-40
2022/04/04 07:02:01;;;;;;;12.88;9.45;;;5.20;99.90;;;;;;5112271;28;20448;-40
2022/04/04 07:04:26;;;;;;;14.45;10.70;;;5.60;99.20;;;;;;5112353;28;20016;-41
2022/04/04 07:06:52;;;;;;;16.98;10.70;;;5.90;98.70;;;;;;5093812;28;20024;-42
2022/04/04 07:09:17;;;;;;;14.73;9.35;;;6.30;98.20;;;;;;5112206;28;20034;-43
2022/04/04 07:11:43;;;;;;;14.20;10.40;;;6.90;96.60;;;;;;5112118;28;20497;-41
2022/04/04 07:14:10;;;;;;;12.65;9.25;;;6.90;96.30;;;;;;5112048;28;20024;-41
2022/04/04 07:16:35;;;;;;;12.80;9.75;;;7.00;96.20;;;;;;5112185;28;20028;-41
2022/04/04 07:19:01;;;;;;;12.15;9.88;;;7.30;95.90;;;;;;5112138;28;20427;-41
2022/04/04 07:21:28;;;;;;;13.65;9.57;;;7.30;95.60;;;;;;5112129;28;20027;-40
2022/04/04 07:23:54;;;;;;;13.43;9.20;;;7.10;95.90;;;;;;5111909;28;20025;-41
2022/04/04 07:26:21;;;;;;;12.90;9.80;;;7.00;96.00;;;;;;5112294;28;20432;-43
2022/04/04 07:28:47;;;;;;;12.57;9.38;;;6.90;95.90;;;;;;5111658;28;20107;-42
2022/04/04 07:31:17;;;;;;;11.80;9.68;;;6.80;96.00;;;;;;5111887;28;20078;-41
2022/04/04 07:33:42;;;;;;;13.48;10.07;;;6.70;96.30;;;;;;5111925;28;20023;-40
2022/04/04 07:36:08;;;;;;;13.43;9.30;;;5.80;97.00;;;;;;5110760;28;20026;-42
2022/04/04 07:38:33;;;;;;;13.13;9.05;;;5.80;97.30;;;;;;5111962;28;20051;-43
2022/04/04 07:40:59;;;;;;;15.88;9.60;;;5.80;97.80;;;;;;5093615;28;20023;-40
2022/04/04 07:43:25;;;;;;;14.68;9.25;;;5.90;97.90;;;;;;5093485;28;20027;-43
2022/04/04 07:45:50;;;;;;;13.70;9.90;;;6.20;97.60;;;;;;5111916;28;20024;-41
2022/04/04 07:48:16;;;;;;;16.50;9.77;;;6.40;97.20;;;;;;5111877;28;20191;-41
2022/04/04 07:50:44;;;;;;;10.52;9.25;;;6.60;96.10;;;;;;5093963;28;20109;-41
2022/04/04 07:53:10;;;;;;;15.13;9.63;;;6.90;95.80;;;;;;5111794;28;20020;-41
2022/04/04 07:55:36;;;;;;;17.95;10.50;;;7.40;95.30;;;;;;5093799;28;20030;-42
2022/04/04 07:58:03;;;;;;;14.35;9.77;;;7.80;94.60;;;;;;5111706;28;20054;-44
2022/04/04 08:00:28;;;;;;;11.88;9.45;;;7.90;94.90;;;;;;5112091;28;20478;-42
2022/04/04 08:02:54;;;;;;;10.73;9.32;;;8.10;94.40;;;;;;5112571;28;20038;-40
2022/04/04 08:05:21;;;;;;;13.65;9.48;;;8.00;93.90;;;;;;5093610;28;20073;-41
2022/04/04 08:07:48;;;;;;;11.45;9.07;;;7.80;94.20;;;;;;5111670;28;20570;-41
2022/04/04 08:10:15;;;;;;;10.13;8.57;;;8.00;94.30;;;;;;5114466;28;20027;-42
2022/04/04 08:12:41;;;;;;;13.23;8.65;;;8.10;93.60;;;;;;5115982;28;20513;-40
2022/04/04 08:15:08;;;;;;;12.02;8.18;;;7.90;93.60;;;;;;5116053;28;20036;-42
2022/04/04 08:17:34;;;;;;;14.15;9.57;;;7.90;93.80;;;;;;5097644;28;20114;-41
2022/04/04 08:20:00;;;;;;;12.23;9.35;;;8.40;93.00;;;;;;5115557;28;20111;-40
2022/04/04 08:22:26;;;;;;;10.40;9.07;;;9.20;92.60;;;;;;5115392;28;20015;-40
2022/04/04 08:24:51;;;;;;;9.90;8.90;;;9.90;90.80;;;;;;5115278;28;20068;-41
2022/04/04 08:27:17;;;;;;;10.27;8.10;;;10.30;89.70;;;;;;5114819;28;20023;-41
2022/04/04 08:29:42;;;;;;;11.63;8.98;;;10.80;86.90;;;;;;5115310;28;20020;-42
2022/04/04 08:32:08;;;;;;;13.13;10.05;;;10.60;86.20;;;;;;5114948;28;20032;-41
2022/04/04 08:34:34;;;;;;;14.52;8.80;;;10.80;84.80;;;;;;5115132;28;20110;-39
2022/04/04 08:37:00;;;;;;;10.93;8.23;;;10.70;83.80;;;;;;5114661;28;20024;-41
2022/04/04 08:39:25;;;;;;;10.15;8.52;;;10.90;81.80;;;;;;5096615;28;20031;-42
2022/04/04 08:41:55;;;;;;;8.38;7.40;;;10.80;81.10;;;;;;5114611;28;20020;-41
2022/04/04 08:44:22;;;;;;;8.52;7.63;;;11.30;81.30;;;;;;5114576;28;20036;-43
2022/04/04 08:46:48;;;;;;;9.00;7.28;;;11.40;79.10;;;;;;5096221;28;20028;-40
2022/04/04 08:49:14;;;;;;;22.48;16.70;;;11.00;78.70;;;;;;5114599;28;20019;-42
2022/04/04 08:51:41;;;;;;;21.45;13.65;;;11.20;80.40;;;;;;5115022;28;20024;-41
2022/04/04 08:54:07;;;;;;;13.45;8.80;;;12.10;78.40;;;;;;5113503;28;20118;-44
2022/04/04 08:56:33;;;;;;;6.97;5.95;;;13.30;76.90;;;;;;5114647;28;20099;-45
2022/04/04 08:58:58;;;;;;;9.38;5.00;;;14.40;68.90;;;;;;5115048;28;20027;-42
2022/04/04 09:01:27;;;;;;;5.78;4.93;;;14.70;65.00;;;;;;5097727;28;20051;-42
2022/04/04 09:04:26;;;;;;;5.57;4.28;;;14.30;65.30;;;;;;5116495;28;20024;-43
2022/04/04 09:06:54;;;;;;;5.70;4.38;;;13.60;61.70;;;;;;5114349;28;20102;-44
2022/04/04 09:09:36;;;;;;;5.15;4.60;;;13.10;63.80;;;;;;5095927;28;20101;-42
2022/04/04 09:12:06;;;;;;;6.88;4.95;;;13.20;64.80;;;;;;5114779;28;20016;-42
2022/04/04 09:14:37;;;;;;;5.13;4.63;;;13.20;63.30;;;;;;5114803;28;20102;-42
2022/04/04 09:17:05;;;;;;;5.63;4.70;;;12.70;63.70;;;;;;5114057;28;20020;-43
2022/04/04 09:19:31;;;;;;;8.45;4.78;;;12.20;64.60;;;;;;5095984;28;20111;-43
2022/04/04 09:22:02;;;;;;;5.90;4.78;;;11.90;65.40;;;;;;5113177;28;20068;-41
2022/04/04 09:25:07;;;;;;;8.15;4.55;;;12.00;63.80;;;;;;5114165;28;20383;-42
2022/04/04 09:27:34;;;;;;;5.32;4.80;;;11.90;64.50;;;;;;5030803;28;20113;-42
2022/04/04 09:30:20;;;;;;;6.13;5.22;;;11.70;65.90;;;;;;5031101;28;20033;-44
2022/04/04 09:32:49;;;;;;;5.93;4.28;;;11.50;66.70;;;;;;5082365;28;20418;-42
2022/04/04 09:35:18;;;;;;;9.52;5.95;;;10.90;65.50;;;;;;5114145;28;20062;-41
2022/04/04 09:37:45;;;;;;;6.57;4.75;;;10.50;65.90;;;;;;5113570;28;20457;-40
2022/04/04 09:40:24;;;;;;;6.03;4.90;;;10.60;66.70;;;;;;5095512;28;20093;-43
2022/04/04 09:42:50;;;;;;;5.10;4.70;;;11.10;65.30;;;;;;5113892;28;20028;-42
2022/04/04 09:45:16;;;;;;;5.88;5.32;;;10.70;64.60;;;;;;5113554;28;20030;-41
2022/04/04 09:48:02;;;;;;;15.60;4.80;;;10.60;65.00;;;;;;5113688;28;20399;-41
2022/04/04 09:50:46;;;;;;;4.90;4.40;;;10.40;64.60;;;;;;5113645;28;20034;-42
2022/04/04 09:53:18;;;;;;;6.10;4.82;;;10.60;65.50;;;;;;5115961;28;20103;-41
2022/04/04 09:55:46;;;;;;;5.13;4.68;;;10.40;65.20;;;;;;5116169;28;20386;-41
2022/04/04 09:58:15;;;;;;;7.50;5.75;;;10.20;65.20;;;;;;5117166;28;20066;-42
2022/04/04 10:00:44;;;;;;;5.70;5.10;;;9.80;65.60;;;;;;5116879;28;20394;-41
2022/04/04 10:03:13;;;;;;;8.65;4.97;;;9.70;66.60;;;;;;5114613;28;20405;-43
2022/04/04 10:05:42;;;;;;;5.35;4.85;;;9.60;66.90;;;;;;5113608;28;20047;-44
2022/04/04 10:08:12;;;;;;;5.05;4.60;;;9.90;67.20;;;;;;5095183;28;20051;-43
2022/04/04 10:10:38;;;;;;;7.28;4.90;;;10.10;66.50;;;;;;5113102;28;20321;-46
2022/04/04 10:13:04;;;;;;;5.20;4.53;;;9.90;65.00;;;;;;5113139;28;20030;-46
2022/04/04 10:15:29;;;;;;;5.72;4.63;;;9.90;66.30;;;;;;5113210;28;20027;-40
2022/04/04 10:17:56;;;;;;;5.05;4.63;;;10.00;65.60;;;;;;5113214;28;20410;-41
2022/04/04 10:20:22;;;;;;;4.97;4.43;;;9.90;65.40;;;;;;5113006;28;20486;-43
2022/04/04 10:22:51;;;;;;;11.68;4.80;;;9.80;65.20;;;;;;5113457;28;20527;-40
2022/04/04 10:25:20;;;;;;;5.22;4.68;;;9.70;66.10;;;;;;5112821;28;20065;-41
2022/04/04 10:27:47;;;;;;;5.50;4.78;;;9.70;66.60;;;;;;5112795;28;20297;-42
2022/04/04 10:30:15;;;;;;;4.90;4.40;;;9.50;66.80;;;;;;5112861;28;20019;-41
2022/04/04 10:32:52;;;;;;;6.72;5.20;;;9.60;68.10;;;;;;5113553;28;20409;-42
2022/04/04 10:35:30;;;;;;;6.03;4.70;;;9.80;66.60;;;;;;5112843;28;20020;-45
2022/04/04 10:38:04;;;;;;;5.15;4.65;;;9.70;66.20;;;;;;5112421;28;20051;-41
2022/04/04 10:40:32;;;;;;;5.82;5.03;;;9.80;66.80;;;;;;5112689;28;20080;-41
2022/04/04 10:43:08;;;;;;;4.88;4.28;;;9.80;65.40;;;;;;5112880;28;20051;-41
2022/04/04 10:45:57;;;;;;;5.53;4.53;;;9.80;65.60;;;;;;5112541;28;20029;-40
2022/04/04 10:48:37;;;;;;;6.07;5.18;;;9.70;65.40;;;;;;5113966;28;20103;-42
2022/04/04 10:51:12;;;;;;;5.68;4.72;;;9.50;65.20;;;;;;5115004;28;20367;-41
2022/04/04 10:53:40;;;;;;;9.57;5.13;;;9.50;66.10;;;;;;5114805;28;20012;-41
2022/04/04 10:56:09;;;;;;;5.90;4.85;;;9.60;65.70;;;;;;5114973;28;20012;-41
2022/04/04 10:58:35;;;;;;;5.53;5.00;;;9.60;65.40;;;;;;5115924;28;20027;-41
2022/04/04 11:01:09;;;;;;;5.25;4.75;;;9.60;65.70;;;;;;5114601;28;20077;-42
2022/04/04 11:03:40;;;;;;;5.85;4.90;;;9.60;65.80;;;;;;5112801;28;20020;-41
2022/04/04 11:09:06;;;;;;;9.00;4.93;;;9.70;65.60;;;;;;5111362;28;20106;-43
2022/04/04 11:12:14;;;;;;;8.48;5.43;;;9.80;65.90;;;;;;5094244;28;20521;-44
2022/04/04 11:14:42;;;;;;;5.60;5.10;;;9.80;64.80;;;;;;5112282;28;20058;-47
2022/04/04 11:17:23;;;;;;;7.45;5.00;;;9.70;65.20;;;;;;5111799;28;20566;-44
2022/04/04 11:20:13;;;;;;;7.38;5.45;;;9.70;65.90;;;;;;5112453;28;20579;-45
2022/04/04 11:22:46;;;;;;;5.20;4.70;;;9.80;67.10;;;;;;5112087;28;20134;-44
2022/04/04 11:25:22;;;;;;;5.75;4.13;;;9.80;66.20;;;;;;5112409;28;20394;-46
2022/04/04 11:27:48;;;;;;;5.18;4.68;;;9.90;64.30;;;;;;5112071;28;20544;-40
2022/04/04 11:30:16;;;;;;;4.75;4.35;;;9.90;63.50;;;;;;5112374;28;20390;-41
2022/04/04 11:32:43;;;;;;;6.50;4.78;;;9.80;64.50;;;;;;5111856;28;20027;-43
2022/04/04 11:35:25;;;;;;;6.82;5.07;;;9.90;62.90;;;;;;5112021;28;20027;-42
2022/04/04 11:38:06;;;;;;;5.03;4.60;;;9.80;64.20;;;;;;5111638;28;20024;-43
2022/04/04 11:40:34;;;;;;;4.65;4.20;;;9.80;64.70;;;;;;5111648;28;20046;-44
2022/04/04 11:43:02;;;;;;;5.70;4.80;;;9.90;63.70;;;;;;5111617;28;20047;-50
2022/04/04 11:45:33;;;;;;;6.65;4.68;;;9.90;62.80;;;;;;5114404;28;20095;-49
2022/04/04 11:48:04;;;;;;;5.88;4.43;;;9.80;64.30;;;;;;5115781;28;20498;-48
2022/04/04 11:50:34;;;;;;;8.32;5.35;;;9.90;63.90;;;;;;5115858;28;20024;-49
2022/04/04 11:53:05;;;;;;;4.35;4.05;;;10.00;65.30;;;;;;5097347;28;20110;-45
2022/04/04 11:55:32;;;;;;;5.07;4.63;;;10.10;65.00;;;;;;5115759;28;20066;-49
2022/04/04 11:58:00;;;;;;;5.93;4.25;;;10.20;64.90;;;;;;5115528;28;20163;-50
2022/04/04 12:00:27;;;;;;;9.15;5.93;;;10.10;65.30;;;;;;5115740;28;20375;-47
2022/04/04 12:02:54;;;;;;;4.90;4.25;;;10.20;63.90;;;;;;5097738;28;20034;-47
2022/04/04 12:05:23;;;;;;;6.38;4.22;;;10.10;63.60;;;;;;5115629;28;20019;-50
2022/04/04 12:07:50;;;;;;;4.45;3.95;;;10.10;64.40;;;;;;5114796;28;20031;-46
2022/04/04 12:10:27;;;;;;;4.15;3.67;;;10.20;65.30;;;;;;5115466;28;20375;-46
2022/04/04 12:13:04;;;;;;;4.68;4.25;;;10.40;64.90;;;;;;5097156;28;20107;-46
2022/04/04 12:15:32;;;;;;;6.63;5.25;;;10.50;65.40;;;;;;5115584;28;20020;-46
2022/04/04 12:17:59;;;;;;;12.48;9.18;;;10.50;65.50;;;;;;5115441;28;20027;-50
2022/04/04 12:20:25;;;;;;;8.05;5.85;;;10.50;65.00;;;;;;5115351;28;20016;-48
2022/04/04 12:25:35;;;;;;;5.95;4.80;;;10.40;64.40;;;;;;5115329;28;20058;-47
2022/04/04 12:28:02;;;;;;;11.98;6.20;;;10.30;65.60;;;;;;5114680;28;20110;-45
2022/04/04 12:30:31;;;;;;;4.35;3.95;;;10.30;62.20;;;;;;5114935;28;20020;-46
2022/04/04 12:33:11;;;;;;;5.60;3.78;;;10.30;62.60;;;;;;5114861;28;20037;-46
2022/04/04 12:35:41;;;;;;;5.88;3.55;;;10.30;62.20;;;;;;5115086;28;20187;-49
2022/04/04 12:38:08;;;;;;;3.85;3.33;;;10.30;62.40;;;;;;5114631;28;20020;-48
2022/04/04 12:40:34;;;;;;;4.85;4.07;;;10.30;62.90;;;;;;5114760;28;20050;-47
2022/04/04 12:43:08;;;;;;;6.10;3.47;;;10.30;63.00;;;;;;5114868;28;20016;-47
2022/04/04 12:45:43;;;;;;;5.70;3.72;;;10.10;62.90;;;;;;5114874;28;20032;-51
2022/04/04 12:48:10;;;;;;;4.35;3.88;;;10.00;63.30;;;;;;5096121;28;20123;-50
2022/04/04 12:50:37;;;;;;;3.78;3.47;;;9.90;62.80;;;;;;5114621;28;20023;-46
2022/04/04 12:53:06;;;;;;;4.40;4.00;;;9.90;63.50;;;;;;5114899;28;20117;-47
2022/04/04 12:55:32;;;;;;;4.20;3.80;;;9.90;64.20;;;;;;5113788;28;20050;-47